createdAt,value
2018-12-16T04:13:58.351Z,92.57
2018-12-16T04:16:30.684Z,110.63
2018-12-16T04:19:02.873Z,88.62
2018-12-16T04:21:35.144Z,72.30
2018-12-16T04:24:07.356Z,76.23
2018-12-16T04:26:39.804Z,69.80
2018-12-16T04:29:11.748Z,74.27
2018-12-16T04:31:43.959Z,69.87
2018-12-16T04:34:15.958Z,62.43
2018-12-16T04:36:48.106Z,68.27
2018-12-16T04:39:20.381Z,77.17
2018-12-16T04:41:52.338Z,77.90
2018-12-16T04:44:24.311Z,79.67
2018-12-16T04:46:56.410Z,56.57
2018-12-16T04:49:28.573Z,62.37
2018-12-16T04:52:00.911Z,58.03
2018-12-16T04:54:33.060Z,50.87
2018-12-16T04:57:05.375Z,50.15
2018-12-16T04:59:38.551Z,49.00
2018-12-16T05:02:10.825Z,50.60
2018-12-16T05:04:42.951Z,39.77
2018-12-16T05:07:15.104Z,32.67
2018-12-16T05:09:47.214Z,41.05
2018-12-16T05:12:19.250Z,34.43
2018-12-16T05:14:50.929Z,43.80
2018-12-16T05:17:23.354Z,41.93
2018-12-16T05:19:55.386Z,32.55
2018-12-16T05:22:27.473Z,38.58
2018-12-16T05:24:59.589Z,43.53
2018-12-16T05:27:31.448Z,39.08
2018-12-16T05:30:03.539Z,44.38
2018-12-16T05:32:35.617Z,43.35
2018-12-16T05:35:08.155Z,36.30
2018-12-16T05:37:40.204Z,33.73
2018-12-16T05:40:12.223Z,37.13
2018-12-16T05:42:44.331Z,46.43
2018-12-16T05:45:16.438Z,39.53
2018-12-16T05:47:48.300Z,45.80
2018-12-16T05:50:20.258Z,42.50
2018-12-16T05:52:52.263Z,45.48
2018-12-16T05:55:24.657Z,47.40
2018-12-16T05:57:56.691Z,47.00
2018-12-16T06:00:28.729Z,52.50
2018-12-16T06:03:00.537Z,57.00
2018-12-16T06:05:32.852Z,49.63
2018-12-16T06:08:04.888Z,39.43
2018-12-16T06:10:37.094Z,41.75
2018-12-16T06:13:08.844Z,49.07
2018-12-16T06:15:40.913Z,46.67
2018-12-16T06:18:12.871Z,38.77
2018-12-16T06:20:45.434Z,51.53
2018-12-16T06:23:18.424Z,47.03
2018-12-16T06:25:50.375Z,44.67
2018-12-16T06:28:22.610Z,43.30
2018-12-16T06:30:56.063Z,42.43
2018-12-16T06:33:28.112Z,47.20
2018-12-16T06:36:00.994Z,41.30
2018-12-16T06:38:34.468Z,44.75
2018-12-16T06:41:07.562Z,46.37
2018-12-16T06:43:40.687Z,42.00
2018-12-16T06:46:13.343Z,40.47
2018-12-16T06:48:46.593Z,46.57
2018-12-16T06:51:19.413Z,46.50
2018-12-16T06:53:52.637Z,39.67
2018-12-16T06:56:24.645Z,43.40
2018-12-16T06:58:56.562Z,41.60
2018-12-16T07:01:28.715Z,46.60
2018-12-16T07:04:00.730Z,55.43
2018-12-16T07:06:32.855Z,42.30
2018-12-16T07:09:06.108Z,43.83
2018-12-16T07:11:38.416Z,41.97
2018-12-16T07:14:10.540Z,42.13
2018-12-16T07:16:42.858Z,37.97
2018-12-16T07:19:15.066Z,34.90
2018-12-16T07:21:47.240Z,34.83
2018-12-16T07:24:19.285Z,41.07
2018-12-16T07:26:52.030Z,31.90
2018-12-16T07:29:25.664Z,35.70
2018-12-16T07:31:57.659Z,36.50
2018-12-16T07:34:31.297Z,37.60
2018-12-16T07:37:04.298Z,40.73
2018-12-16T07:39:36.831Z,37.27
2018-12-16T07:42:09.045Z,45.85
2018-12-16T07:44:42.177Z,37.50
2018-12-16T07:47:14.877Z,54.58
2018-12-16T07:49:48.141Z,40.70
2018-12-16T07:52:20.992Z,46.23
2018-12-16T07:54:53.956Z,41.23
2018-12-16T07:57:25.906Z,52.87
2018-12-16T07:59:58.136Z,48.77
2018-12-16T08:02:30.889Z,47.98
2018-12-16T08:05:03.238Z,45.90
2018-12-16T08:07:36.205Z,54.05
2018-12-16T08:10:09.772Z,43.97
2018-12-16T08:12:42.040Z,54.03
2018-12-16T08:15:14.275Z,46.33
2018-12-16T08:17:47.843Z,50.37
2018-12-16T08:20:21.703Z,52.17
2018-12-16T08:22:54.301Z,63.07
2018-12-16T08:25:27.853Z,52.83
2018-12-16T08:28:00.946Z,52.27
2018-12-16T08:30:33.666Z,55.07
2018-12-16T08:33:06.539Z,56.60
2018-12-16T08:35:38.677Z,55.07
2018-12-16T08:38:10.921Z,53.70
2018-12-16T08:40:44.444Z,62.23
2018-12-16T08:43:37.907Z,60.40
2018-12-16T08:46:15.835Z,62.83
2018-12-16T08:48:47.926Z,61.97
2018-12-16T08:51:20.169Z,58.10
2018-12-16T08:53:52.495Z,55.20
2018-12-16T08:56:24.598Z,57.63
2018-12-16T08:58:57.136Z,50.63
2018-12-16T09:01:29.436Z,64.87
2018-12-16T09:04:01.685Z,52.03
2018-12-16T09:06:33.853Z,50.87
2018-12-16T09:09:07.619Z,57.10
2018-12-16T09:11:39.983Z,61.07
2018-12-16T09:14:12.238Z,56.43
2018-12-16T09:16:44.302Z,63.63
2018-12-16T09:19:16.255Z,61.73
2018-12-16T09:21:48.441Z,59.07
2018-12-16T09:24:20.544Z,64.22
2018-12-16T09:26:52.870Z,60.00
2018-12-16T09:29:25.379Z,67.45
2018-12-16T09:31:57.734Z,60.57
2018-12-16T09:34:29.611Z,81.72
2018-12-16T09:37:01.748Z,72.00
2018-12-16T09:39:33.668Z,93.83
2018-12-16T09:42:05.930Z,84.10
2018-12-16T09:44:37.992Z,81.03
2018-12-16T09:47:10.054Z,95.70
2018-12-16T09:49:41.963Z,78.00
2018-12-16T09:52:14.505Z,81.60
2018-12-16T09:54:46.512Z,80.73
2018-12-16T09:57:18.986Z,84.50
2018-12-16T09:59:51.321Z,82.60
2018-12-16T10:02:23.752Z,88.40
2018-12-16T10:04:56.016Z,84.65
2018-12-16T10:07:27.990Z,98.42
2018-12-16T10:10:00.069Z,93.63
2018-12-16T10:12:32.164Z,85.17
2018-12-16T10:15:04.917Z,88.50
2018-12-16T10:17:37.623Z,86.70
2018-12-16T10:20:11.040Z,94.67
2018-12-16T10:22:43.495Z,90.50
2018-12-16T10:25:15.704Z,88.75
2018-12-16T10:27:48.344Z,83.47
2018-12-16T10:30:21.377Z,90.07
2018-12-16T10:33:06.296Z,88.70
2018-12-16T10:35:49.205Z,92.00
2018-12-16T10:38:43.530Z,88.30
2018-12-16T10:41:30.238Z,81.10
2018-12-16T10:44:12.113Z,93.53
2018-12-16T10:50:07.263Z,92.17
2018-12-16T10:52:39.647Z,88.70
2018-12-16T10:55:13.799Z,96.97
2018-12-16T10:57:45.911Z,88.20
2018-12-16T11:00:17.789Z,87.50
2018-12-16T11:02:49.856Z,104.57
2018-12-16T11:05:22.571Z,90.63
2018-12-16T11:07:55.252Z,86.13
2018-12-16T11:10:27.347Z,79.70
2018-12-16T11:12:59.735Z,74.30
2018-12-16T11:15:31.862Z,95.97
2018-12-16T11:18:04.194Z,93.13
2018-12-16T11:20:37.602Z,89.70
2018-12-16T11:23:09.678Z,91.90
2018-12-16T11:25:42.314Z,91.73
2018-12-16T11:28:14.692Z,81.57
2018-12-16T11:30:47.991Z,76.37
2018-12-16T11:33:20.024Z,92.20
2018-12-16T11:35:52.952Z,81.53
2018-12-16T11:38:25.273Z,70.93
2018-12-16T11:40:58.078Z,65.28
2018-12-16T11:43:30.294Z,69.57
2018-12-16T11:46:02.601Z,75.78
2018-12-16T11:48:34.603Z,65.33
2018-12-16T11:51:07.214Z,69.53
2018-12-16T11:53:39.113Z,64.63
2018-12-16T11:56:11.144Z,67.63
2018-12-16T11:58:43.241Z,60.77
2018-12-16T12:01:15.399Z,62.70
2018-12-16T12:03:47.795Z,69.67
2018-12-16T12:06:19.923Z,60.97
2018-12-16T12:08:52.357Z,63.45
2018-12-16T12:11:25.140Z,63.60
2018-12-16T12:13:58.200Z,60.03
2018-12-16T12:16:30.516Z,61.80
2018-12-16T12:19:02.653Z,67.10
2018-12-16T12:21:35.164Z,58.80
2018-12-16T12:24:08.762Z,66.83
2018-12-16T12:26:41.015Z,59.50
2018-12-16T12:29:13.293Z,66.20
2018-12-16T12:31:45.391Z,65.73
2018-12-16T12:34:18.429Z,57.97
2018-12-16T12:36:51.357Z,57.03
2018-12-16T12:39:23.916Z,58.27
2018-12-16T12:41:56.589Z,61.53
2018-12-16T12:44:29.998Z,61.97
2018-12-16T12:47:02.440Z,50.97
2018-12-16T12:49:34.961Z,53.83
2018-12-16T12:52:07.586Z,52.40
2018-12-16T12:54:40.890Z,66.47
2018-12-16T12:57:13.999Z,63.28
2018-12-16T13:00:00.548Z,54.10
2018-12-16T13:02:41.168Z,64.82
2018-12-16T13:05:14.754Z,53.67
2018-12-16T13:07:47.545Z,49.47
2018-12-16T13:10:20.431Z,55.80
2018-12-16T13:12:52.685Z,60.73
2018-12-16T13:15:25.671Z,53.77
2018-12-16T13:17:57.853Z,60.43
2018-12-16T13:20:30.073Z,55.53
2018-12-16T13:23:02.564Z,58.85
2018-12-16T13:25:50.353Z,50.23
2018-12-16T13:28:22.853Z,54.50
2018-12-16T13:30:55.161Z,53.80
2018-12-16T13:33:27.578Z,53.07
2018-12-16T13:36:00.054Z,48.10
2018-12-16T13:38:32.517Z,58.58
2018-12-16T13:41:06.163Z,50.58
2018-12-16T13:43:38.595Z,48.73
2018-12-16T13:46:10.756Z,56.87
2018-12-16T13:48:43.163Z,54.03
2018-12-16T13:51:16.270Z,53.58
2018-12-16T13:53:48.943Z,57.73
2018-12-16T13:56:21.326Z,55.97
2018-12-16T13:58:53.859Z,59.97
2018-12-16T14:01:26.096Z,55.37
2018-12-16T14:03:59.513Z,54.00
2018-12-16T14:06:31.981Z,52.87
2018-12-16T14:09:05.213Z,52.35
2018-12-16T14:11:38.478Z,65.83
2018-12-16T14:14:10.866Z,55.58
2018-12-16T14:16:43.295Z,47.77
2018-12-16T14:19:15.992Z,49.37
2018-12-16T14:21:48.380Z,50.30
2018-12-16T14:24:21.027Z,52.70
2018-12-16T14:26:53.224Z,53.00
2018-12-16T14:29:26.259Z,52.10
2018-12-16T14:31:58.235Z,59.33
2018-12-16T14:34:30.166Z,53.33
2018-12-16T14:37:02.281Z,49.83
2018-12-16T14:39:34.697Z,48.38
2018-12-16T14:42:06.856Z,62.95
2018-12-16T14:44:39.077Z,62.85
2018-12-16T14:47:11.348Z,61.98
2018-12-16T14:49:43.360Z,49.90
2018-12-16T14:52:15.408Z,61.43
2018-12-16T14:54:48.691Z,59.57
2018-12-16T14:57:21.784Z,56.07
2018-12-16T14:59:55.585Z,57.67
2018-12-16T15:02:27.682Z,65.57
2018-12-16T15:05:00.640Z,57.43
2018-12-16T15:07:33.145Z,70.80
2018-12-16T15:10:06.781Z,54.80
2018-12-16T15:12:38.938Z,60.70
2018-12-16T15:15:11.385Z,66.40
2018-12-16T15:17:45.448Z,72.80
2018-12-16T15:20:17.739Z,76.10
2018-12-16T15:22:50.179Z,72.93
2018-12-16T15:25:22.663Z,76.53
2018-12-16T15:27:54.704Z,72.00
2018-12-16T15:30:26.963Z,81.03
2018-12-16T15:32:59.151Z,83.23
2018-12-16T15:35:31.685Z,78.97
2018-12-16T15:38:04.208Z,79.70
2018-12-16T15:40:36.509Z,65.43
2018-12-16T15:43:08.942Z,86.87
2018-12-16T15:45:41.639Z,85.10
2018-12-16T15:48:14.271Z,91.33
2018-12-16T15:50:47.874Z,86.25
2018-12-16T15:53:20.165Z,73.50
2018-12-16T15:55:52.347Z,89.93
2018-12-16T15:58:24.711Z,97.57
2018-12-16T16:00:56.964Z,79.37
2018-12-16T16:03:29.097Z,85.45
2018-12-16T16:06:01.714Z,91.95
2018-12-16T16:08:33.657Z,88.53
2018-12-16T16:11:05.820Z,74.97
2018-12-16T16:13:38.413Z,91.10
2018-12-16T16:16:10.888Z,80.12
2018-12-16T16:18:43.741Z,84.80
2018-12-16T16:21:16.338Z,76.53
2018-12-16T16:23:48.662Z,84.70
2018-12-16T16:26:20.433Z,73.10
2018-12-16T16:28:52.939Z,72.43
2018-12-16T16:31:25.515Z,79.30
2018-12-16T16:33:57.691Z,69.70
2018-12-16T16:36:29.920Z,80.37
2018-12-16T16:39:03.806Z,75.87
2018-12-16T16:41:36.426Z,72.77
2018-12-16T16:44:08.726Z,70.90
2018-12-16T16:46:41.195Z,68.63
2018-12-16T16:49:13.495Z,77.25
2018-12-16T16:51:45.905Z,71.77
2018-12-16T16:54:18.036Z,69.65
2018-12-16T16:56:50.413Z,66.10
2018-12-16T16:59:22.760Z,65.33
2018-12-16T17:01:55.430Z,68.10
2018-12-16T17:04:27.987Z,62.77
2018-12-16T17:07:00.556Z,62.90
2018-12-16T17:09:32.604Z,61.30
2018-12-16T17:12:04.842Z,62.77
2018-12-16T17:14:36.740Z,73.55
2018-12-16T17:17:08.864Z,57.25
2018-12-16T17:19:41.167Z,61.40
2018-12-16T17:22:13.455Z,76.25
2018-12-16T17:24:45.748Z,55.73
2018-12-16T17:27:16.385Z,63.10
2018-12-16T17:29:48.834Z,54.90
2018-12-16T17:32:21.366Z,54.47
2018-12-16T17:34:54.067Z,53.93
2018-12-16T17:37:26.334Z,68.93
2018-12-16T17:39:58.530Z,55.13
2018-12-16T17:42:30.846Z,65.27
2018-12-16T17:45:02.994Z,59.20
2018-12-16T17:47:35.547Z,63.83
2018-12-16T17:50:07.819Z,56.90
2018-12-16T17:52:40.124Z,58.40
2018-12-16T17:55:12.459Z,62.30
2018-12-16T17:57:44.696Z,61.63
2018-12-16T18:00:17.494Z,53.58
2018-12-16T18:02:50.276Z,65.00
2018-12-16T18:05:22.679Z,77.00
2018-12-16T18:07:55.659Z,59.40
2018-12-16T18:10:28.545Z,62.60
2018-12-16T18:13:01.810Z,64.33
2018-12-16T18:15:33.940Z,60.67
2018-12-16T18:18:06.534Z,63.30
2018-12-16T18:20:39.038Z,58.85
2018-12-16T18:23:11.637Z,62.80
2018-12-16T18:25:43.929Z,60.70
2018-12-16T18:28:16.221Z,61.73
2018-12-16T18:30:48.505Z,62.83
2018-12-16T18:33:21.175Z,68.63
2018-12-16T18:35:53.599Z,65.13
2018-12-16T18:38:26.201Z,73.17
2018-12-16T18:40:58.525Z,63.23
2018-12-16T18:43:30.754Z,59.33
2018-12-16T18:46:03.426Z,72.10
2018-12-16T18:48:35.860Z,62.17
2018-12-16T18:51:08.467Z,69.25
2018-12-16T18:53:40.907Z,63.90
2018-12-16T18:56:12.795Z,61.48
2018-12-16T18:58:45.215Z,59.67
2018-12-16T19:01:17.747Z,66.42
2018-12-16T19:03:49.532Z,61.75
2018-12-16T19:06:22.479Z,65.53
2018-12-16T19:08:54.822Z,64.67
2018-12-16T19:11:27.752Z,68.17
2018-12-16T19:14:00.061Z,66.07
2018-12-16T19:16:32.642Z,68.30
2018-12-16T19:19:05.594Z,62.45
2018-12-16T19:21:38.115Z,60.78
2018-12-16T19:24:10.639Z,58.13
2018-12-16T19:26:44.053Z,61.08
2018-12-16T19:29:17.540Z,50.47
2018-12-16T19:31:51.085Z,57.37
2018-12-16T19:34:23.961Z,61.97
2018-12-16T19:36:56.744Z,58.13
2018-12-16T19:39:29.289Z,54.85
2018-12-16T19:42:02.203Z,51.92
2018-12-16T19:44:36.018Z,59.13
2018-12-16T19:47:08.529Z,56.83
2018-12-16T19:49:41.177Z,49.10
2018-12-16T19:52:14.261Z,58.27
2018-12-16T19:54:47.044Z,60.57
2018-12-16T19:57:19.881Z,50.95
2018-12-16T19:59:52.813Z,61.68
2018-12-16T20:02:25.188Z,50.53
2018-12-16T20:04:58.394Z,53.05
2018-12-16T20:07:32.096Z,44.97
2018-12-16T20:10:04.753Z,48.20
2018-12-16T20:12:37.665Z,64.53
2018-12-16T20:15:10.383Z,57.10
2018-12-16T20:17:43.126Z,48.03
2018-12-16T20:20:15.385Z,58.53
2018-12-16T20:25:33.862Z,49.73
2018-12-16T20:28:06.284Z,53.00
2018-12-16T20:30:38.598Z,60.60
2018-12-16T20:33:11.035Z,58.97
2018-12-16T20:35:44.030Z,55.47
2018-12-16T20:38:16.111Z,53.20
2018-12-16T20:40:48.277Z,61.17
2018-12-16T20:43:20.059Z,50.33
2018-12-16T20:45:52.421Z,60.67
2018-12-16T20:48:24.505Z,56.90
2018-12-16T20:50:56.734Z,60.50
2018-12-16T20:53:29.393Z,55.03
2018-12-16T20:56:01.715Z,52.63
2018-12-16T20:58:34.260Z,61.50
2018-12-16T21:01:06.281Z,66.90
2018-12-16T21:03:37.944Z,54.00
2018-12-16T21:06:09.989Z,59.23
2018-12-16T21:08:42.256Z,57.23
2018-12-16T21:11:14.527Z,57.53
2018-12-16T21:13:46.355Z,61.77
2018-12-16T21:16:18.291Z,67.43
2018-12-16T21:18:51.263Z,56.53
2018-12-16T21:21:23.178Z,63.20
2018-12-16T21:23:55.064Z,59.97
2018-12-16T21:26:27.043Z,64.67
2018-12-16T21:28:58.935Z,61.18
2018-12-16T21:31:30.784Z,63.27
2018-12-16T21:34:02.835Z,66.53
2018-12-16T21:36:34.875Z,64.72
2018-12-16T21:39:07.923Z,70.47
2018-12-16T21:41:40.173Z,61.27
2018-12-16T21:44:12.077Z,64.27
2018-12-16T21:46:43.973Z,59.97
2018-12-16T21:49:16.017Z,60.50
2018-12-16T21:51:47.736Z,53.97
2018-12-16T21:54:19.617Z,55.30
2018-12-16T21:56:51.655Z,63.17
2018-12-16T21:59:23.883Z,63.97
2018-12-16T22:01:55.852Z,52.45
2018-12-16T22:04:27.961Z,59.67
2018-12-16T22:06:59.773Z,56.63
2018-12-16T22:09:31.787Z,58.73
2018-12-16T22:12:03.810Z,48.33
2018-12-16T22:14:35.753Z,52.27
2018-12-16T22:17:07.661Z,50.83
2018-12-16T22:19:39.593Z,51.07
2018-12-16T22:22:11.527Z,44.83
2018-12-16T22:24:44.227Z,52.73
2018-12-16T22:27:16.070Z,62.60
2018-12-16T22:29:48.203Z,46.92
2018-12-16T22:32:20.325Z,57.40
2018-12-16T22:34:52.303Z,48.87
2018-12-16T22:37:24.120Z,53.20
2018-12-16T22:39:55.980Z,48.73
2018-12-16T22:42:27.962Z,52.37
2018-12-16T22:44:59.976Z,59.63
2018-12-16T22:47:31.903Z,48.07
2018-12-16T22:50:03.765Z,47.80
2018-12-16T22:52:36.252Z,49.87
2018-12-16T22:55:08.399Z,48.77
2018-12-16T22:57:46.902Z,39.50
2018-12-16T23:00:16.010Z,57.90
2018-12-16T23:02:48.663Z,58.23
2018-12-16T23:05:20.609Z,55.23
2018-12-16T23:07:53.032Z,54.13
2018-12-16T23:10:25.580Z,54.03
2018-12-16T23:12:57.533Z,51.83
2018-12-16T23:15:29.640Z,57.83
2018-12-16T23:18:01.616Z,51.70
2018-12-16T23:20:33.492Z,49.30
2018-12-16T23:23:05.493Z,55.73
2018-12-16T23:25:37.499Z,53.17
2018-12-16T23:28:09.445Z,47.80
2018-12-16T23:30:41.439Z,49.87
2018-12-16T23:33:13.357Z,45.87
2018-12-16T23:35:45.487Z,55.57
2018-12-16T23:38:17.389Z,39.77
2018-12-16T23:40:49.293Z,69.63
2018-12-16T23:43:21.279Z,58.93
2018-12-16T23:45:53.166Z,62.00
2018-12-16T23:48:25.155Z,65.43
2018-12-16T23:50:57.876Z,61.27
2018-12-16T23:53:29.679Z,51.43
2018-12-16T23:56:01.646Z,59.80
2018-12-16T23:58:33.948Z,47.83
